SWT5777 LFML-LFKJ
Flight info
| Callsign | SWT5777 |
|---|---|
| Flight time | 0h 42m |
| Altitude | 23000 |
| Route | TINOT Z154 RUBAS |
| Aircraft | B738/M-SDE2E3FGHIRWXY/LB1 |
Departure
| Time | 2026-05-06 22:20 |
|---|---|
| Airport | Marseille Provence Airport (LFML) |
Arrival
| Time | 2026-05-06 23:02 |
|---|---|
| Airport | Ajaccio Napoléon Bonaparte airport (LFKJ) |
| Time | Latitude | Longitude | Altitude | Speed | Heading |
|---|---|---|---|---|---|
| 2026-05-06 22:09 | 43.44606 | 5.21676 | 22 ft | 0 kts | 325° |
| 2026-05-06 22:11 | 43.44598 | 5.21684 | 22 ft | 2 kts | 325° |
| 2026-05-06 22:12 | 43.44586 | 5.21695 | 24 ft | 2 kts | 326° |
| 2026-05-06 22:12 | 43.44574 | 5.21707 | 25 ft | 2 kts | 325° |
| 2026-05-06 22:12 | 43.44562 | 5.21718 | 25 ft | 2 kts | 326° |
| 2026-05-06 22:12 | 43.44553 | 5.21734 | 25 ft | 2 kts | 277° |
| 2026-05-06 22:13 | 43.44556 | 5.21755 | 25 ft | 2 kts | 235° |
| 2026-05-06 22:13 | 43.44564 | 5.21765 | 25 ft | 0 kts | 205° |
| 2026-05-06 22:13 | 43.44565 | 5.21765 | 25 ft | 0 kts | 205° |
| 2026-05-06 22:15 | 43.44561 | 5.21763 | 25 ft | 3 kts | 207° |
| 2026-05-06 22:15 | 43.44508 | 5.21716 | 26 ft | 11 kts | 214° |
| 2026-05-06 22:16 | 43.44443 | 5.21669 | 26 ft | 10 kts | 198° |
| 2026-05-06 22:16 | 43.44374 | 5.21604 | 26 ft | 13 kts | 233° |
| 2026-05-06 22:16 | 43.44323 | 5.21483 | 26 ft | 14 kts | 242° |
| 2026-05-06 22:16 | 43.44275 | 5.21360 | 25 ft | 13 kts | 241° |
| 2026-05-06 22:17 | 43.44230 | 5.21247 | 24 ft | 13 kts | 241° |
| 2026-05-06 22:17 | 43.44165 | 5.21170 | 24 ft | 12 kts | 179° |
| 2026-05-06 22:17 | 43.44094 | 5.21235 | 26 ft | 15 kts | 134° |
| 2026-05-06 22:17 | 43.44013 | 5.21352 | 28 ft | 18 kts | 134° |
| 2026-05-06 22:18 | 43.43921 | 5.21513 | 32 ft | 23 kts | 90° |
| 2026-05-06 22:18 | 43.43964 | 5.21723 | 34 ft | 26 kts | 128° |
| 2026-05-06 22:18 | 43.43830 | 5.21910 | 39 ft | 29 kts | 134° |
| 2026-05-06 22:18 | 43.43663 | 5.22087 | 45 ft | 32 kts | 151° |
| 2026-05-06 22:19 | 43.43460 | 5.22248 | 52 ft | 35 kts | 151° |
| 2026-05-06 22:19 | 43.43212 | 5.22491 | 60 ft | 37 kts | 134° |
| 2026-05-06 22:19 | 43.42880 | 5.22950 | 70 ft | 38 kts | 158° |
| 2026-05-06 22:19 | 43.42767 | 5.22794 | 70 ft | 13 kts | 300° |
| 2026-05-06 22:20 | 43.42849 | 5.22670 | 68 ft | 34 kts | 313° |
| 2026-05-06 22:20 | 43.43227 | 5.22134 | 54 ft | 118 kts | 313° |
| 2026-05-06 22:20 | 43.43962 | 5.21099 | 169 ft | 174 kts | 312° |
| 2026-05-06 22:20 | 43.44852 | 5.19796 | 754 ft | 200 kts | 311° |
| 2026-05-06 22:21 | 43.45754 | 5.18469 | 1757 ft | 196 kts | 308° |
| 2026-05-06 22:21 | 43.46479 | 5.16818 | 2379 ft | 209 kts | 290° |
| 2026-05-06 22:21 | 43.46704 | 5.14857 | 3188 ft | 216 kts | 265° |
| 2026-05-06 22:21 | 43.46243 | 5.12891 | 4015 ft | 223 kts | 240° |
| 2026-05-06 22:22 | 43.45222 | 5.11316 | 4877 ft | 228 kts | 218° |
| 2026-05-06 22:22 | 43.43784 | 5.10411 | 5739 ft | 233 kts | 198° |
| 2026-05-06 22:22 | 43.42189 | 5.09883 | 6575 ft | 237 kts | 195° |
| 2026-05-06 22:22 | 43.39480 | 5.09011 | 7972 ft | 240 kts | 197° |
| 2026-05-06 22:23 | 43.37875 | 5.08446 | 8754 ft | 243 kts | 197° |
| 2026-05-06 22:23 | 43.36179 | 5.07864 | 9282 ft | 258 kts | 196° |
| 2026-05-06 22:23 | 43.34378 | 5.07266 | 9828 ft | 273 kts | 196° |
| 2026-05-06 22:23 | 43.32491 | 5.06646 | 10386 ft | 287 kts | 196° |
| 2026-05-06 22:24 | 43.30515 | 5.05997 | 10863 ft | 303 kts | 196° |
| 2026-05-06 22:24 | 43.28395 | 5.05300 | 11348 ft | 319 kts | 195° |
| 2026-05-06 22:24 | 43.26157 | 5.04773 | 11771 ft | 337 kts | 187° |
| 2026-05-06 22:24 | 43.23793 | 5.04989 | 12289 ft | 353 kts | 169° |
| 2026-05-06 22:25 | 43.21497 | 5.06205 | 13047 ft | 361 kts | 153° |
| 2026-05-06 22:25 | 43.19384 | 5.08150 | 13774 ft | 368 kts | 142° |
| 2026-05-06 22:25 | 43.17629 | 5.10714 | 14550 ft | 374 kts | 126° |
| 2026-05-06 22:25 | 43.16314 | 5.13820 | 15270 ft | 380 kts | 118° |
| 2026-05-06 22:26 | 43.15151 | 5.17047 | 15999 ft | 384 kts | 117° |
| 2026-05-06 22:26 | 43.14010 | 5.20358 | 16678 ft | 388 kts | 116° |
| 2026-05-06 22:26 | 43.12863 | 5.23677 | 17365 ft | 392 kts | 117° |
| 2026-05-06 22:26 | 43.11607 | 5.27016 | 18040 ft | 395 kts | 122° |
| 2026-05-06 22:27 | 43.09971 | 5.29994 | 18667 ft | 395 kts | 138° |
| 2026-05-06 22:27 | 43.07733 | 5.32107 | 19297 ft | 393 kts | 156° |
| 2026-05-06 22:27 | 43.05180 | 5.33415 | 19915 ft | 393 kts | 168° |
| 2026-05-06 22:27 | 43.02487 | 5.34036 | 20558 ft | 392 kts | 178° |
| 2026-05-06 22:28 | 42.99770 | 5.34145 | 21230 ft | 391 kts | 185° |
| 2026-05-06 22:28 | 42.97100 | 5.33928 | 22091 ft | 385 kts | 188° |
| 2026-05-06 22:28 | 42.94430 | 5.33600 | 22753 ft | 383 kts | 189° |
| 2026-05-06 22:28 | 42.91774 | 5.33272 | 22945 ft | 384 kts | 189° |
| 2026-05-06 22:29 | 42.89151 | 5.32979 | 22972 ft | 381 kts | 189° |
| 2026-05-06 22:29 | 42.86488 | 5.32720 | 22966 ft | 380 kts | 188° |
| 2026-05-06 22:29 | 42.83854 | 5.32493 | 22965 ft | 390 kts | 188° |
| 2026-05-06 22:29 | 42.81086 | 5.32363 | 22949 ft | 406 kts | 184° |
| 2026-05-06 22:30 | 42.78239 | 5.32834 | 22964 ft | 427 kts | 171° |
| 2026-05-06 22:30 | 42.75363 | 5.34204 | 22956 ft | 447 kts | 159° |
| 2026-05-06 22:30 | 42.72614 | 5.36385 | 22962 ft | 466 kts | 149° |
| 2026-05-06 22:30 | 42.70087 | 5.39190 | 22965 ft | 474 kts | 141° |
| 2026-05-06 22:31 | 42.67845 | 5.42429 | 22956 ft | 479 kts | 131° |
| 2026-05-06 22:31 | 42.66076 | 5.46328 | 22967 ft | 486 kts | 118° |
| 2026-05-06 22:31 | 42.64766 | 5.50549 | 22961 ft | 488 kts | 114° |
| 2026-05-06 22:31 | 42.63612 | 5.54847 | 22966 ft | 489 kts | 112° |
| 2026-05-06 22:32 | 42.62530 | 5.59223 | 22956 ft | 490 kts | 111° |
| 2026-05-06 22:32 | 42.61468 | 5.63668 | 22957 ft | 491 kts | 110° |
| 2026-05-06 22:32 | 42.60420 | 5.68077 | 22963 ft | 490 kts | 111° |
| 2026-05-06 22:32 | 42.59375 | 5.72423 | 22970 ft | 489 kts | 111° |
| 2026-05-06 22:33 | 42.58309 | 5.76793 | 22956 ft | 489 kts | 112° |
| 2026-05-06 22:33 | 42.57229 | 5.81156 | 22964 ft | 489 kts | 112° |
| 2026-05-06 22:33 | 42.56139 | 5.85506 | 22963 ft | 489 kts | 112° |
| 2026-05-06 22:33 | 42.55042 | 5.89847 | 22965 ft | 489 kts | 112° |
| 2026-05-06 22:34 | 42.53928 | 5.94222 | 22956 ft | 489 kts | 113° |
| 2026-05-06 22:34 | 42.52819 | 5.98560 | 22961 ft | 489 kts | 113° |
| 2026-05-06 22:34 | 42.51707 | 6.02896 | 22971 ft | 489 kts | 113° |
| 2026-05-06 22:34 | 42.50595 | 6.07221 | 22963 ft | 490 kts | 113° |
| 2026-05-06 22:35 | 42.49467 | 6.11598 | 22981 ft | 489 kts | 113° |
| 2026-05-06 22:35 | 42.48362 | 6.15881 | 22971 ft | 489 kts | 113° |
| 2026-05-06 22:35 | 42.47231 | 6.20253 | 22972 ft | 489 kts | 113° |
| 2026-05-06 22:35 | 42.44606 | 6.30375 | 22970 ft | 489 kts | 113° |
| 2026-05-06 22:36 | 42.26317 | 6.99774 | 22964 ft | 488 kts | 114° |
| 2026-05-06 22:36 | 42.17193 | 7.33704 | 22983 ft | 488 kts | 114° |
| 2026-05-06 22:36 | 42.16042 | 7.37951 | 22974 ft | 472 kts | 114° |
| 2026-05-06 22:36 | 42.14951 | 7.41996 | 22970 ft | 445 kts | 115° |
| 2026-05-06 22:37 | 42.14824 | 7.42467 | 22973 ft | 442 kts | 115° |
| 2026-05-06 22:37 | 42.14314 | 7.44367 | 22970 ft | 429 kts | 115° |
| 2026-05-06 22:37 | 42.13331 | 7.48014 | 22948 ft | 405 kts | 115° |
| 2026-05-06 22:38 | 42.12386 | 7.51501 | 22746 ft | 388 kts | 115° |
| 2026-05-06 22:38 | 42.11469 | 7.54852 | 22393 ft | 377 kts | 115° |
| 2026-05-06 22:38 | 42.10561 | 7.58145 | 21966 ft | 376 kts | 115° |
| 2026-05-06 22:38 | 42.09647 | 7.61428 | 21512 ft | 380 kts | 115° |
| 2026-05-06 22:39 | 42.08728 | 7.64732 | 21045 ft | 378 kts | 115° |
| 2026-05-06 22:39 | 42.07809 | 7.68050 | 20585 ft | 376 kts | 115° |
| 2026-05-06 22:39 | 42.06908 | 7.71315 | 20130 ft | 373 kts | 115° |
| 2026-05-06 22:39 | 42.06004 | 7.74591 | 19677 ft | 371 kts | 115° |
| 2026-05-06 22:40 | 42.05105 | 7.77849 | 19218 ft | 368 kts | 115° |
| 2026-05-06 22:40 | 42.04223 | 7.81041 | 18770 ft | 366 kts | 115° |
| 2026-05-06 22:40 | 42.03343 | 7.84224 | 18320 ft | 364 kts | 115° |
| 2026-05-06 22:40 | 42.02462 | 7.87409 | 17870 ft | 361 kts | 115° |
| 2026-05-06 22:41 | 42.00732 | 7.93645 | 16987 ft | 356 kts | 115° |
| 2026-05-06 22:41 | 41.99864 | 7.96767 | 16539 ft | 354 kts | 115° |
| 2026-05-06 22:41 | 41.98999 | 7.99824 | 16097 ft | 351 kts | 116° |
| 2026-05-06 22:42 | 41.97934 | 8.02759 | 15664 ft | 344 kts | 126° |
| 2026-05-06 22:42 | 41.96463 | 8.05197 | 15235 ft | 334 kts | 140° |
| 2026-05-06 22:42 | 41.94753 | 8.07241 | 14809 ft | 330 kts | 145° |
| 2026-05-06 22:42 | 41.92975 | 8.09180 | 14379 ft | 327 kts | 146° |
| 2026-05-06 22:43 | 41.91203 | 8.11085 | 13954 ft | 325 kts | 146° |
| 2026-05-06 22:43 | 41.89464 | 8.12976 | 13542 ft | 323 kts | 145° |
| 2026-05-06 22:43 | 41.87719 | 8.14901 | 13120 ft | 322 kts | 144° |
| 2026-05-06 22:43 | 41.86017 | 8.16798 | 12703 ft | 320 kts | 144° |
| 2026-05-06 22:44 | 41.84309 | 8.18710 | 12282 ft | 319 kts | 144° |
| 2026-05-06 22:44 | 41.82621 | 8.20602 | 11867 ft | 317 kts | 143° |
| 2026-05-06 22:44 | 41.80935 | 8.22491 | 11450 ft | 315 kts | 143° |
| 2026-05-06 22:44 | 41.79258 | 8.24368 | 11036 ft | 314 kts | 143° |
| 2026-05-06 22:45 | 41.77601 | 8.26221 | 10622 ft | 312 kts | 143° |
| 2026-05-06 22:45 | 41.75951 | 8.28064 | 10246 ft | 309 kts | 143° |
| 2026-05-06 22:45 | 41.74326 | 8.29882 | 10048 ft | 300 kts | 143° |
| 2026-05-06 22:45 | 41.72731 | 8.31665 | 9776 ft | 294 kts | 143° |
| 2026-05-06 22:46 | 41.71165 | 8.33409 | 9382 ft | 294 kts | 143° |
| 2026-05-06 22:46 | 41.69610 | 8.35138 | 9028 ft | 292 kts | 143° |
| 2026-05-06 22:46 | 41.68052 | 8.36871 | 8666 ft | 290 kts | 142° |
| 2026-05-06 22:46 | 41.66513 | 8.38585 | 8319 ft | 282 kts | 142° |
| 2026-05-06 22:47 | 41.65094 | 8.40311 | 8029 ft | 271 kts | 134° |
| 2026-05-06 22:47 | 41.64042 | 8.42267 | 7984 ft | 252 kts | 122° |
| 2026-05-06 22:47 | 41.63261 | 8.44249 | 7993 ft | 232 kts | 118° |
| 2026-05-06 22:47 | 41.62611 | 8.46123 | 7989 ft | 217 kts | 111° |
| 2026-05-06 22:48 | 41.62318 | 8.48120 | 7983 ft | 221 kts | 89° |
| 2026-05-06 22:48 | 41.62671 | 8.50079 | 7978 ft | 218 kts | 61° |
| 2026-05-06 22:48 | 41.63517 | 8.51764 | 7802 ft | 221 kts | 52° |
| 2026-05-06 22:48 | 41.64413 | 8.53408 | 7549 ft | 217 kts | 53° |
| 2026-05-06 22:49 | 41.65274 | 8.55038 | 7302 ft | 216 kts | 53° |
| 2026-05-06 22:49 | 41.66242 | 8.56563 | 7057 ft | 212 kts | 37° |
| 2026-05-06 22:49 | 41.67542 | 8.57343 | 6811 ft | 206 kts | 4° |
| 2026-05-06 22:49 | 41.68960 | 8.57289 | 6570 ft | 203 kts | 352° |
| 2026-05-06 22:50 | 41.70370 | 8.57170 | 6309 ft | 201 kts | 355° |
| 2026-05-06 22:50 | 41.71759 | 8.57105 | 6057 ft | 201 kts | 355° |
| 2026-05-06 22:50 | 41.73156 | 8.57037 | 5804 ft | 200 kts | 355° |
| 2026-05-06 22:50 | 41.74539 | 8.56958 | 5556 ft | 199 kts | 355° |
| 2026-05-06 22:51 | 41.75921 | 8.56876 | 5303 ft | 197 kts | 355° |
| 2026-05-06 22:51 | 41.77297 | 8.56794 | 5057 ft | 197 kts | 355° |
| 2026-05-06 22:51 | 41.78654 | 8.56714 | 4807 ft | 196 kts | 355° |
| 2026-05-06 22:51 | 41.80005 | 8.56635 | 4559 ft | 195 kts | 355° |
| 2026-05-06 22:52 | 41.81367 | 8.56553 | 4313 ft | 194 kts | 355° |
| 2026-05-06 22:52 | 41.82711 | 8.56474 | 4065 ft | 194 kts | 355° |
| 2026-05-06 22:52 | 41.84027 | 8.56397 | 3817 ft | 190 kts | 355° |
| 2026-05-06 22:52 | 41.85374 | 8.56316 | 3565 ft | 193 kts | 355° |
| 2026-05-06 22:53 | 41.86698 | 8.56238 | 3315 ft | 191 kts | 356° |
| 2026-05-06 22:53 | 41.87989 | 8.56162 | 3079 ft | 179 kts | 356° |
| 2026-05-06 22:53 | 41.89163 | 8.56093 | 2988 ft | 160 kts | 356° |
| 2026-05-06 22:53 | 41.90240 | 8.56029 | 3002 ft | 149 kts | 356° |
| 2026-05-06 22:54 | 41.91266 | 8.55967 | 2994 ft | 145 kts | 356° |
| 2026-05-06 22:54 | 41.92289 | 8.55905 | 2995 ft | 146 kts | 355° |
| 2026-05-06 22:54 | 41.93287 | 8.55846 | 2998 ft | 145 kts | 356° |
| 2026-05-06 22:54 | 41.94314 | 8.55785 | 2996 ft | 146 kts | 355° |
| 2026-05-06 22:55 | 41.95331 | 8.55724 | 2994 ft | 146 kts | 356° |
| 2026-05-06 22:55 | 41.96337 | 8.55665 | 2996 ft | 145 kts | 356° |
| 2026-05-06 22:55 | 41.97347 | 8.55664 | 2997 ft | 146 kts | 7° |
| 2026-05-06 22:55 | 41.98252 | 8.56287 | 2998 ft | 148 kts | 44° |
| 2026-05-06 22:56 | 41.98798 | 8.57451 | 3003 ft | 151 kts | 65° |
| 2026-05-06 22:56 | 41.99119 | 8.58793 | 3000 ft | 152 kts | 70° |
| 2026-05-06 22:56 | 41.99438 | 8.60154 | 2998 ft | 151 kts | 69° |
| 2026-05-06 22:56 | 41.99770 | 8.61501 | 3001 ft | 153 kts | 69° |
| 2026-05-06 22:57 | 42.00103 | 8.62853 | 2993 ft | 152 kts | 69° |
| 2026-05-06 22:57 | 42.00428 | 8.64187 | 3000 ft | 150 kts | 69° |
| 2026-05-06 22:57 | 42.00755 | 8.65537 | 2997 ft | 149 kts | 72° |
| 2026-05-06 22:57 | 42.00813 | 8.66922 | 3002 ft | 152 kts | 100° |
| 2026-05-06 22:58 | 42.00563 | 8.68294 | 3005 ft | 153 kts | 100° |
| 2026-05-06 22:58 | 42.00365 | 8.69704 | 3005 ft | 153 kts | 97° |
| 2026-05-06 22:58 | 42.00188 | 8.71103 | 3001 ft | 152 kts | 97° |
| 2026-05-06 22:58 | 42.00006 | 8.72508 | 3007 ft | 152 kts | 98° |
| 2026-05-06 22:59 | 41.99824 | 8.73903 | 2968 ft | 154 kts | 98° |
| 2026-05-06 22:59 | 41.99638 | 8.75323 | 2641 ft | 154 kts | 98° |
| 2026-05-06 22:59 | 41.99453 | 8.76721 | 2308 ft | 148 kts | 98° |
| 2026-05-06 22:59 | 41.99279 | 8.78061 | 2067 ft | 146 kts | 98° |
| 2026-05-06 23:00 | 41.99106 | 8.79408 | 1828 ft | 144 kts | 98° |
| 2026-05-06 23:00 | 41.98926 | 8.80728 | 1600 ft | 143 kts | 101° |
| 2026-05-06 23:00 | 41.98478 | 8.81919 | 1372 ft | 146 kts | 133° |
| 2026-05-06 23:00 | 41.97615 | 8.82606 | 1155 ft | 148 kts | 158° |
| 2026-05-06 23:01 | 41.96587 | 8.82803 | 905 ft | 149 kts | 187° |
| 2026-05-06 23:01 | 41.95656 | 8.82247 | 697 ft | 148 kts | 207° |
| 2026-05-06 23:01 | 41.94720 | 8.81688 | 588 ft | 148 kts | 204° |
| 2026-05-06 23:01 | 41.93771 | 8.81099 | 271 ft | 149 kts | 204° |
| 2026-05-06 23:02 | 41.92858 | 8.80527 | 35 ft | 139 kts | 204° |
| 2026-05-06 23:02 | 41.92047 | 8.80028 | 15 ft | 109 kts | 204° |
| 2026-05-06 23:02 | 41.91472 | 8.79681 | 16 ft | 75 kts | 205° |
| 2026-05-06 23:02 | 41.91250 | 8.79491 | 17 ft | 10 kts | 245° |
| 2026-05-06 23:03 | 41.91302 | 8.79392 | 17 ft | 21 kts | 335° |
| 2026-05-06 23:03 | 41.91439 | 8.79334 | 17 ft | 20 kts | 4° |
| 2026-05-06 23:03 | 41.91566 | 8.79399 | 16 ft | 19 kts | 25° |
| 2026-05-06 23:03 | 41.91684 | 8.79473 | 16 ft | 18 kts | 26° |
| 2026-05-06 23:04 | 41.91797 | 8.79542 | 16 ft | 17 kts | 25° |
| 2026-05-06 23:04 | 41.91903 | 8.79607 | 16 ft | 16 kts | 25° |
| 2026-05-06 23:04 | 41.92003 | 8.79670 | 16 ft | 15 kts | 25° |
| 2026-05-06 23:04 | 41.92097 | 8.79729 | 15 ft | 14 kts | 25° |
| 2026-05-06 23:05 | 41.92184 | 8.79784 | 16 ft | 13 kts | 25° |
| 2026-05-06 23:05 | 41.92264 | 8.79830 | 15 ft | 11 kts | 1° |
| 2026-05-06 23:05 | 41.92299 | 8.79756 | 16 ft | 10 kts | 275° |
| 2026-05-06 23:05 | 41.92305 | 8.79665 | 15 ft | 10 kts | 275° |
| 2026-05-06 23:06 | 41.92315 | 8.79517 | 16 ft | 20 kts | 276° |
| 2026-05-06 23:06 | 41.92326 | 8.79332 | 15 ft | 19 kts | 273° |
| 2026-05-06 23:06 | 41.92334 | 8.79186 | 15 ft | 3 kts | 275° |
| 2026-05-06 23:06 | 41.92336 | 8.79153 | 15 ft | 4 kts | 276° |
| 2026-05-06 23:07 | 41.92337 | 8.79090 | 15 ft | 4 kts | 239° |
| 2026-05-06 23:07 | 41.92329 | 8.79080 | 15 ft | 3 kts | 208° |
| 2026-05-06 23:07 | 41.92302 | 8.79071 | 15 ft | 0 kts | 187° |